Time;durP1;ratioP1;P1;durP2;ratioP2;P2;SDS_P1;SDS_P2;PMS_P1;PMS_P2;Temp;Humidity;BMP_temperature;BMP_pressure;BME280_temperature;BME280_humidity;BME280_pressure;Samples;Min_cycle;Max_cycle;Signal;HPM_P1;HPM_P2
2022/08/14 00:01:05;;;;;;;;;;;;;;;;;;5138024;27;19922;-87
2022/08/14 00:03:39;;;;;;;;;;;;;;;;;;5138004;27;19922;-88
2022/08/14 00:06:04;;;;;;;;;;;;;;;;;;5142272;27;20381;-88
2022/08/14 00:08:29;;;;;;;;;;;;;;;;;;5131155;27;19919;-88
2022/08/14 00:10:55;;;;;;;;;;;;;;;;;;5138019;27;20301;-88
2022/08/14 00:13:22;;;;;;;;;;;;;;;;;;5119592;27;20360;-87
2022/08/14 00:15:48;;;;;;;;;;;;;;;;;;5137332;27;20105;-88
2022/08/14 00:18:14;;;;;;;;;;;;;;;;;;5119441;27;19915;-88
2022/08/14 00:20:40;;;;;;;;;;;;;;;;;;5118871;27;19995;-88
2022/08/14 00:23:06;;;;;;;;;;;;;;;;;;5119086;27;19941;-87
2022/08/14 00:25:31;;;;;;;;;;;;;;;;;;5118757;27;20240;-88
2022/08/14 00:27:56;;;;;;;;;;;;;;;;;;5151495;27;19919;-87
2022/08/14 00:30:22;;;;;;;;;;;;;;;;;;5139547;27;19947;-87
2022/08/14 00:32:47;;;;;;;;;;;;;;;;;;5137169;27;19916;-88
2022/08/14 00:35:12;;;;;;;;;;;;;;;;;;5137141;27;19916;-87
2022/08/14 00:37:38;;;;;;;;;;;;;;;;;;5119017;27;19915;-87
2022/08/14 00:40:04;;;;;;;;;;;;;;;;;;5118912;27;19923;-88
2022/08/14 00:42:31;;;;;;;;;;;;;;;;;;5119110;27;19915;-87
2022/08/14 00:44:56;;;;;;;;;;;;;;;;;;5118741;27;19915;-87
2022/08/14 00:47:24;;;;;;;;;;;;;;;;;;5147138;27;19920;-86
2022/08/14 00:49:50;;;;;;;;;;;;;;;;;;5126178;27;19968;-88
2022/08/14 00:52:15;;;;;;;;;;;;;;;;;;5136998;27;19915;-88
2022/08/14 00:54:41;;;;;;;;;;;;;;;;;;5136541;27;19926;-88
2022/08/14 00:57:06;;;;;;;;;;;;;;;;;;5136482;27;19922;-87
2022/08/14 00:59:32;;;;;;;;;;;;;;;;;;5136872;27;20060;-86
2022/08/14 01:01:57;;;;;;;;;;;;;;;;;;5136748;27;19915;-88
2022/08/14 01:04:23;;;;;;;;;;;;;;;;;;5136349;27;19923;-87
2022/08/14 01:06:50;;;;;;;;;;;;;;;;;;5118257;27;19916;-88
2022/08/14 01:09:16;;;;;;;;;;;;;;;;;;5131390;27;19920;-88
2022/08/14 01:11:41;;;;;;;;;;;;;;;;;;5118860;27;20262;-87
2022/08/14 01:14:07;;;;;;;;;;;;;;;;;;5118167;27;19965;-87
2022/08/14 01:16:32;;;;;;;;;;;;;;;;;;5136285;27;19961;-88
2022/08/14 01:21:42;;;;;;;;;;;;;;;;;;5120097;27;19922;-88
2022/08/14 01:24:07;;;;;;;;;;;;;;;;;;5101404;27;20023;-86
2022/08/14 01:26:34;;;;;;;;;;;;;;;;;;5136492;27;19922;-87
2022/08/14 01:28:59;;;;;;;;;;;;;;;;;;5148177;27;19915;-87
2022/08/14 01:31:25;;;;;;;;;;;;;;;;;;5140403;27;20355;-88
2022/08/14 01:33:52;;;;;;;;;;;;;;;;;;5136155;27;20335;-89
2022/08/14 01:36:19;;;;;;;;;;;;;;;;;;5136469;27;19923;-87
2022/08/14 01:38:47;;;;;;;;;;;;;;;;;;5100632;27;19923;-88
2022/08/14 01:41:18;;;;;;;;;;;;;;;;;;5118304;27;19922;-87
2022/08/14 01:43:50;;;;;;;;;;;;;;;;;;5136055;27;19978;-88
2022/08/14 01:46:24;;;;;;;;;;;;;;;;;;5135760;27;19919;-88
2022/08/14 01:48:51;;;;;;;;;;;;;;;;;;5141838;27;19927;-87
2022/08/14 01:51:16;;;;;;;;;;;;;;;;;;5146722;27;19919;-88
2022/08/14 01:53:43;;;;;;;;;;;;;;;;;;5117996;28;19915;-88
2022/08/14 01:56:09;;;;;;;;;;;;;;;;;;5135504;27;20360;-88
2022/08/14 01:58:34;;;;;;;;;;;;;;;;;;5117638;28;19922;-87
2022/08/14 02:01:00;;;;;;;;;;;;;;;;;;5135904;27;20010;-88
2022/08/14 02:03:27;;;;;;;;;;;;;;;;;;5135647;28;19915;-87
2022/08/14 02:05:58;;;;;;;;;;;;;;;;;;5135532;28;19916;-88
2022/08/14 02:08:26;;;;;;;;;;;;;;;;;;5137795;28;20007;-87
2022/08/14 02:11:15;;;;;;;;;;;;;;;;;;5133697;28;19923;-88
2022/08/14 02:13:37;;;;;;;;;;;;;;;;;;5120542;28;19916;-89
2022/08/14 02:16:02;;;;;;;;;;;;;;;;;;5135653;28;19919;-87
2022/08/14 02:18:29;;;;;;;;;;;;;;;;;;5135479;28;20011;-88
2022/08/14 02:20:55;;;;;;;;;;;;;;;;;;5100143;28;19912;-87
2022/08/14 02:23:20;;;;;;;;;;;;;;;;;;5117329;28;19915;-88
2022/08/14 02:25:46;;;;;;;;;;;;;;;;;;5116941;28;20191;-88
2022/08/14 02:28:11;;;;;;;;;;;;;;;;;;5117398;28;19915;-87
2022/08/14 02:30:36;;;;;;;;;;;;;;;;;;5149691;28;19923;-86
2022/08/14 02:33:04;;;;;;;;;;;;;;;;;;5141686;27;19960;-87
2022/08/14 02:35:29;;;;;;;;;;;;;;;;;;5139773;27;19936;-88
2022/08/14 02:37:55;;;;;;;;;;;;;;;;;;5126292;27;19994;-87
2022/08/14 02:40:20;;;;;;;;;;;;;;;;;;5152090;27;19922;-87
2022/08/14 02:42:46;;;;;;;;;;;;;;;;;;5117910;27;19916;-87
2022/08/14 02:45:12;;;;;;;;;;;;;;;;;;5129390;27;19942;-86
2022/08/14 02:47:37;;;;;;;;;;;;;;;;;;5140316;27;20248;-87
2022/08/14 02:50:03;;;;;;;;;;;;;;;;;;5144051;27;19927;-87
2022/08/14 02:52:28;;;;;;;;;;;;;;;;;;5147795;27;19926;-86
2022/08/14 02:54:55;;;;;;;;;;;;;;;;;;5139307;27;19919;-87
2022/08/14 02:57:21;;;;;;;;;;;;;;;;;;5139695;27;19916;-89
2022/08/14 02:59:47;;;;;;;;;;;;;;;;;;5121239;27;19916;-87
2022/08/14 03:02:13;;;;;;;;;;;;;;;;;;5139302;27;19922;-87
2022/08/14 03:04:38;;;;;;;;;;;;;;;;;;5120774;27;19915;-87
2022/08/14 03:07:03;;;;;;;;;;;;;;;;;;5121024;27;19915;-87
2022/08/14 03:09:29;;;;;;;;;;;;;;;;;;5120856;27;20419;-87
2022/08/14 03:11:54;;;;;;;;;;;;;;;;;;5154587;27;19926;-85
2022/08/14 03:14:22;;;;;;;;;;;;;;;;;;5117279;27;19968;-86
2022/08/14 03:16:49;;;;;;;;;;;;;;;;;;5139087;27;19926;-87
2022/08/14 03:19:14;;;;;;;;;;;;;;;;;;5141830;27;20345;-87
2022/08/14 03:21:40;;;;;;;;;;;;;;;;;;5139038;27;19923;-86
2022/08/14 03:24:11;;;;;;;;;;;;;;;;;;5138649;27;19972;-87
2022/08/14 03:26:38;;;;;;;;;;;;;;;;;;5138912;27;19964;-88
2022/08/14 03:29:03;;;;;;;;;;;;;;;;;;5138523;27;20325;-87
2022/08/14 03:31:29;;;;;;;;;;;;;;;;;;5142851;27;19916;-88
2022/08/14 03:33:55;;;;;;;;;;;;;;;;;;5151255;27;20010;-87
2022/08/14 03:36:21;;;;;;;;;;;;;;;;;;5138815;27;20002;-88
2022/08/14 03:38:49;;;;;;;;;;;;;;;;;;5120485;27;19916;-88
2022/08/14 03:41:18;;;;;;;;;;;;;;;;;;5120572;27;20055;-87
2022/08/14 03:43:44;;;;;;;;;;;;;;;;;;5119628;28;19947;-88
2022/08/14 03:46:10;;;;;;;;;;;;;;;;;;5138630;27;20325;-87
2022/08/14 03:48:37;;;;;;;;;;;;;;;;;;5120307;27;19915;-87
2022/08/14 03:51:02;;;;;;;;;;;;;;;;;;5139705;27;19922;-87
2022/08/14 03:53:28;;;;;;;;;;;;;;;;;;5115090;27;19920;-87
2022/08/14 03:55:57;;;;;;;;;;;;;;;;;;5140133;27;19976;-88
2022/08/14 03:58:23;;;;;;;;;;;;;;;;;;5120208;27;19916;-88
2022/08/14 04:00:48;;;;;;;;;;;;;;;;;;5138274;27;19960;-88
2022/08/14 04:03:13;;;;;;;;;;;;;;;;;;5138260;27;19915;-88
2022/08/14 04:05:41;;;;;;;;;;;;;;;;;;5119807;27;19964;-88
2022/08/14 04:08:09;;;;;;;;;;;;;;;;;;5137967;27;20326;-87
2022/08/14 04:10:35;;;;;;;;;;;;;;;;;;5138149;27;19964;-88
2022/08/14 04:13:00;;;;;;;;;;;;;;;;;;5155758;27;20302;-88
2022/08/14 04:15:26;;;;;;;;;;;;;;;;;;5155697;27;19950;-87
2022/08/14 04:17:55;;;;;;;;;;;;;;;;;;5124608;27;19924;-88
2022/08/14 04:20:20;;;;;;;;;;;;;;;;;;5139968;27;19933;-87
2022/08/14 04:22:46;;;;;;;;;;;;;;;;;;5142233;27;19915;-88
2022/08/14 04:25:11;;;;;;;;;;;;;;;;;;5123256;27;19911;-86
2022/08/14 04:27:36;;;;;;;;;;;;;;;;;;5138707;27;19915;-88
2022/08/14 04:30:05;;;;;;;;;;;;;;;;;;5119212;27;19967;-87
2022/08/14 04:32:32;;;;;;;;;;;;;;;;;;5146611;27;19927;-85
2022/08/14 04:35:00;;;;;;;;;;;;;;;;;;5156658;27;19920;-87
2022/08/14 04:45:40;;;;;;;;;;;;;;;;;;5121542;27;19996;-87
2022/08/14 04:48:13;;;;;;;;;;;;;;;;;;5119528;27;20265;-87
2022/08/14 04:50:48;;;;;;;;;;;;;;;;;;5119942;27;19922;-87
2022/08/14 04:53:14;;;;;;;;;;;;;;;;;;5129815;27;20003;-88
2022/08/14 04:55:41;;;;;;;;;;;;;;;;;;5155632;27;20000;-87
2022/08/14 04:58:07;;;;;;;;;;;;;;;;;;5119110;27;19915;-87
2022/08/14 05:00:32;;;;;;;;;;;;;;;;;;5118796;27;19916;-87
2022/08/14 05:02:58;;;;;;;;;;;;;;;;;;5137277;27;20010;-87
2022/08/14 05:05:23;;;;;;;;;;;;;;;;;;5136947;27;20402;-88
2022/08/14 05:07:49;;;;;;;;;;;;;;;;;;5136948;27;20010;-87
2022/08/14 05:10:15;;;;;;;;;;;;;;;;;;5118528;27;20260;-88
2022/08/14 05:12:40;;;;;;;;;;;;;;;;;;5139746;27;19916;-86
2022/08/14 05:15:06;;;;;;;;;;;;;;;;;;5157395;27;19911;-87
2022/08/14 05:17:32;;;;;;;;;;;;;;;;;;5144170;27;19926;-87
2022/08/14 05:19:57;;;;;;;;;;;;;;;;;;5138518;27;19915;-87
2022/08/14 05:22:23;;;;;;;;;;;;;;;;;;5138750;27;19916;-87
2022/08/14 05:24:49;;;;;;;;;;;;;;;;;;5138760;27;20317;-87
2022/08/14 05:27:18;;;;;;;;;;;;;;;;;;5137358;27;19916;-88
2022/08/14 05:29:45;;;;;;;;;;;;;;;;;;5137284;27;19971;-88
2022/08/14 05:32:10;;;;;;;;;;;;;;;;;;5136837;27;19922;-88
2022/08/14 05:34:35;;;;;;;;;;;;;;;;;;5135416;27;19919;-86
2022/08/14 05:37:01;;;;;;;;;;;;;;;;;;5153020;27;19919;-87
2022/08/14 05:39:26;;;;;;;;;;;;;;;;;;5118031;27;19916;-87
2022/08/14 05:41:52;;;;;;;;;;;;;;;;;;5136762;27;20001;-87
2022/08/14 05:44:17;;;;;;;;;;;;;;;;;;5118150;27;19957;-87
2022/08/14 05:46:43;;;;;;;;;;;;;;;;;;5136468;27;19919;-88
2022/08/14 05:49:08;;;;;;;;;;;;;;;;;;5136638;27;19919;-88
2022/08/14 05:51:33;;;;;;;;;;;;;;;;;;5136296;27;19919;-88
2022/08/14 05:53:59;;;;;;;;;;;;;;;;;;5141483;27;19917;-87
2022/08/14 05:56:24;;;;;;;;;;;;;;;;;;5148127;27;19927;-87
2022/08/14 05:58:50;;;;;;;;;;;;;;;;;;5136910;27;19915;-87
2022/08/14 06:01:15;;;;;;;;;;;;;;;;;;5136776;27;20935;-87
2022/08/14 06:03:40;;;;;;;;;;;;;;;;;;5136607;27;19919;-86
2022/08/14 06:06:06;;;;;;;;;;;;;;;;;;5118165;28;20360;-86
2022/08/14 06:08:31;;;;;;;;;;;;;;;;;;5118208;28;19923;-87
2022/08/14 06:11:02;;;;;;;;;;;;;;;;;;5118041;28;19916;-87
2022/08/14 06:13:37;;;;;;;;;;;;;;;;;;5121970;28;19911;-87
2022/08/14 06:16:03;;;;;;;;;;;;;;;;;;5122632;28;19919;-86
2022/08/14 06:18:28;;;;;;;;;;;;;;;;;;5131001;28;19978;-87
2022/08/14 06:20:53;;;;;;;;;;;;;;;;;;5137137;28;19923;-86
2022/08/14 06:23:19;;;;;;;;;;;;;;;;;;5117674;28;19915;-87
2022/08/14 06:25:44;;;;;;;;;;;;;;;;;;5100379;28;20340;-87
2022/08/14 06:28:19;;;;;;;;;;;;;;;;;;5135858;28;19915;-86
2022/08/14 06:30:44;;;;;;;;;;;;;;;;;;5117393;28;19920;-87
2022/08/14 06:33:10;;;;;;;;;;;;;;;;;;5135669;28;20034;-86
2022/08/14 06:35:35;;;;;;;;;;;;;;;;;;5139091;28;19988;-87
2022/08/14 06:38:00;;;;;;;;;;;;;;;;;;5127203;28;19919;-86
2022/08/14 06:40:27;;;;;;;;;;;;;;;;;;5138963;28;19916;-85
2022/08/14 06:42:52;;;;;;;;;;;;;;;;;;5135889;28;19923;-86
2022/08/14 06:45:18;;;;;;;;;;;;;;;;;;5117535;28;19915;-86
2022/08/14 06:47:44;;;;;;;;;;;;;;;;;;5135539;28;19923;-85
2022/08/14 06:50:11;;;;;;;;;;;;;;;;;;5117920;28;19923;-85
2022/08/14 06:52:36;;;;;;;;;;;;;;;;;;5117704;28;19915;-86
2022/08/14 06:55:03;;;;;;;;;;;;;;;;;;5136560;28;19942;-85
2022/08/14 06:57:36;;;;;;;;;;;;;;;;;;5147150;28;19916;-84
2022/08/14 07:00:01;;;;;;;;;;;;;;;;;;5120867;28;19915;-85
2022/08/14 07:07:54;;;;;;;;;;;;;;;;;;5135348;28;20012;-85
2022/08/14 07:10:22;;;;;;;;;;;;;;;;;;5117880;28;19915;-86
2022/08/14 07:12:48;;;;;;;;;;;;;;;;;;5135905;28;20253;-86
2022/08/14 07:15:13;;;;;;;;;;;;;;;;;;5136917;28;19915;-84
2022/08/14 07:17:48;;;;;;;;;;;;;;;;;;5148685;28;19920;-84
2022/08/14 07:20:14;;;;;;;;;;;;;;;;;;5122704;27;19973;-84
2022/08/14 07:22:39;;;;;;;;;;;;;;;;;;5121835;27;19919;-87
2022/08/14 07:25:05;;;;;;;;;;;;;;;;;;5141194;27;20291;-87
2022/08/14 07:27:30;;;;;;;;;;;;;;;;;;5121835;27;19942;-86
2022/08/14 07:29:55;;;;;;;;;;;;;;;;;;5140395;27;19916;-86
2022/08/14 07:32:21;;;;;;;;;;;;;;;;;;5121441;27;20242;-86
2022/08/14 07:34:47;;;;;;;;;;;;;;;;;;5121179;27;20344;-87
2022/08/14 07:37:12;;;;;;;;;;;;;;;;;;5113713;27;19922;-83
2022/08/14 07:39:37;;;;;;;;;;;;;;;;;;5148650;27;19915;-86
2022/08/14 07:42:03;;;;;;;;;;;;;;;;;;5138733;27;20018;-87
2022/08/14 07:44:28;;;;;;;;;;;;;;;;;;5138636;27;19915;-85
2022/08/14 07:46:54;;;;;;;;;;;;;;;;;;5138658;27;19923;-86
2022/08/14 07:49:19;;;;;;;;;;;;;;;;;;5120360;27;20357;-86
2022/08/14 07:51:45;;;;;;;;;;;;;;;;;;5139238;27;19915;-86
2022/08/14 07:54:10;;;;;;;;;;;;;;;;;;5122795;27;19920;-86
2022/08/14 07:56:35;;;;;;;;;;;;;;;;;;5126668;27;19914;-86
2022/08/14 07:59:01;;;;;;;;;;;;;;;;;;5134720;27;19926;-85
2022/08/14 08:01:27;;;;;;;;;;;;;;;;;;5141124;27;19964;-86
2022/08/14 08:03:52;;;;;;;;;;;;;;;;;;5120902;27;20280;-86
2022/08/14 08:06:17;;;;;;;;;;;;;;;;;;5102768;27;19922;-86
2022/08/14 08:08:42;;;;;;;;;;;;;;;;;;5138366;27;19911;-85
2022/08/14 08:11:08;;;;;;;;;;;;;;;;;;5120011;27;19922;-86
2022/08/14 08:13:34;;;;;;;;;;;;;;;;;;5138699;27;19998;-86
2022/08/14 08:16:00;;;;;;;;;;;;;;;;;;5119911;27;19923;-86
2022/08/14 08:18:27;;;;;;;;;;;;;;;;;;5147043;27;19978;-85
2022/08/14 08:20:53;;;;;;;;;;;;;;;;;;5145974;27;20457;-85
2022/08/14 08:23:19;;;;;;;;;;;;;;;;;;5140796;27;19951;-86
2022/08/14 08:25:46;;;;;;;;;;;;;;;;;;5139517;27;20344;-86
2022/08/14 08:28:19;;;;;;;;;;;;;;;;;;5139337;27;19922;-85
2022/08/14 08:30:51;;;;;;;;;;;;;;;;;;5119767;27;20356;-85
2022/08/14 08:33:18;;;;;;;;;;;;;;;;;;5120112;27;19919;-86
2022/08/14 08:35:43;;;;;;;;;;;;;;;;;;5119644;27;20327;-85
2022/08/14 08:38:09;;;;;;;;;;;;;;;;;;5130271;27;19916;-84
2022/08/14 08:40:35;;;;;;;;;;;;;;;;;;5134619;27;19912;-84
2022/08/14 08:43:05;;;;;;;;;;;;;;;;;;5119792;27;20363;-85
2022/08/14 08:45:30;;;;;;;;;;;;;;;;;;5115946;27;20657;-84
2022/08/14 08:47:56;;;;;;;;;;;;;;;;;;5152083;27;19915;-84
2022/08/14 08:50:23;;;;;;;;;;;;;;;;;;5134360;27;19899;-84
2022/08/14 08:52:52;;;;;;;;;;;;;;;;;;5123205;27;20325;-85
2022/08/14 08:55:27;;;;;;;;;;;;;;;;;;5118928;27;19926;-84
2022/08/14 08:57:54;;;;;;;;;;;;;;;;;;5125798;27;19916;-84
2022/08/14 09:00:19;;;;;;;;;;;;;;;;;;5131599;27;20248;-84
2022/08/14 09:02:58;;;;;;;;;;;;;;;;;;5121009;27;19915;-85
2022/08/14 09:05:23;;;;;;;;;;;;;;;;;;5137170;27;19915;-84
2022/08/14 09:07:49;;;;;;;;;;;;;;;;;;5118856;27;20309;-85
2022/08/14 09:10:14;;;;;;;;;;;;;;;;;;5118927;27;19922;-85
2022/08/14 09:12:39;;;;;;;;;;;;;;;;;;5136921;27;20226;-84
2022/08/14 09:15:05;;;;;;;;;;;;;;;;;;5118653;27;19920;-85
2022/08/14 09:17:31;;;;;;;;;;;;;;;;;;5118427;27;19916;-85
2022/08/14 09:19:57;;;;;;;;;;;;;;;;;;5143320;27;19951;-86
2022/08/14 09:22:22;;;;;;;;;;;;;;;;;;5122291;27;19943;-85
2022/08/14 09:24:48;;;;;;;;;;;;;;;;;;5118584;27;19923;-86
2022/08/14 09:27:13;;;;;;;;;;;;;;;;;;5118612;27;19923;-84
2022/08/14 09:29:40;;;;;;;;;;;;;;;;;;5118475;27;19915;-86
2022/08/14 09:32:06;;;;;;;;;;;;;;;;;;5136596;27;20000;-84
2022/08/14 09:34:34;;;;;;;;;;;;;;;;;;5118082;27;20355;-85
2022/08/14 09:37:02;;;;;;;;;;;;;;;;;;5136270;27;19916;-85
2022/08/14 09:39:47;;;;;;;;;;;;;;;;;;5121922;27;20229;-85
2022/08/14 09:42:22;;;;;;;;;;;;;;;;;;5123767;27;19911;-85
2022/08/14 09:44:50;;;;;;;;;;;;;;;;;;5118342;27;19915;-85
2022/08/14 09:47:15;;;;;;;;;;;;;;;;;;5136192;27;19918;-85
2022/08/14 09:49:41;;;;;;;;;;;;;;;;;;5136385;27;20001;-85
2022/08/14 09:52:10;;;;;;;;;;;;;;;;;;5118022;27;20240;-84
2022/08/14 09:54:39;;;;;;;;;;;;;;;;;;5118107;27;19992;-87
2022/08/14 09:57:05;;;;;;;;;;;;;;;;;;5136294;27;19916;-85
2022/08/14 09:59:38;;;;;;;;;;;;;;;;;;5144158;27;19923;-85
2022/08/14 10:02:05;;;;;;;;;;;;;;;;;;5127548;28;19925;-85
2022/08/14 10:04:31;;;;;;;;;;;;;;;;;;5101150;28;20325;-87
2022/08/14 10:06:57;;;;;;;;;;;;;;;;;;5100331;28;19916;-86
2022/08/14 10:09:22;;;;;;;;;;;;;;;;;;5118241;28;20002;-84
2022/08/14 10:11:54;;;;;;;;;;;;;;;;;;5135721;28;19958;-85
2022/08/14 10:14:21;;;;;;;;;;;;;;;;;;5117805;28;19923;-84
2022/08/14 10:16:48;;;;;;;;;;;;;;;;;;5135677;28;19922;-84
2022/08/14 10:19:14;;;;;;;;;;;;;;;;;;5120418;28;19919;-85
2022/08/14 10:21:42;;;;;;;;;;;;;;;;;;5125588;28;19911;-86
2022/08/14 10:24:11;;;;;;;;;;;;;;;;;;5100544;28;19920;-86
2022/08/14 10:26:37;;;;;;;;;;;;;;;;;;5100468;28;20363;-85
2022/08/14 10:29:06;;;;;;;;;;;;;;;;;;5117194;28;19962;-86
2022/08/14 10:31:33;;;;;;;;;;;;;;;;;;5117194;28;20611;-85
2022/08/14 10:34:04;;;;;;;;;;;;;;;;;;5117629;28;19915;-85
2022/08/14 10:36:34;;;;;;;;;;;;;;;;;;5135800;28;19915;-85
2022/08/14 10:39:00;;;;;;;;;;;;;;;;;;5118181;28;19916;-85
2022/08/14 10:41:37;;;;;;;;;;;;;;;;;;5147731;27;19919;-85
2022/08/14 10:44:13;;;;;;;;;;;;;;;;;;5101157;28;19920;-86
2022/08/14 10:47:01;;;;;;;;;;;;;;;;;;5136175;28;19938;-86
2022/08/14 10:49:27;;;;;;;;;;;;;;;;;;5117577;28;19916;-87
2022/08/14 10:52:00;;;;;;;;;;;;;;;;;;5135490;28;19922;-85
2022/08/14 10:54:33;;;;;;;;;;;;;;;;;;5136628;27;19923;-85
2022/08/14 10:57:10;;;;;;;;;;;;;;;;;;5121146;27;19915;-86
2022/08/14 10:59:44;;;;;;;;;;;;;;;;;;5143697;27;19958;-84
2022/08/14 11:02:16;;;;;;;;;;;;;;;;;;5154199;27;19919;-85
2022/08/14 11:04:41;;;;;;;;;;;;;;;;;;5139913;27;19923;-85
2022/08/14 11:07:12;;;;;;;;;;;;;;;;;;5120969;27;19919;-87
2022/08/14 11:09:37;;;;;;;;;;;;;;;;;;5120739;27;20424;-85
2022/08/14 11:12:03;;;;;;;;;;;;;;;;;;5139198;27;20023;-85
2022/08/14 11:14:28;;;;;;;;;;;;;;;;;;5120570;27;20002;-86
2022/08/14 11:16:54;;;;;;;;;;;;;;;;;;5138671;27;20256;-85
2022/08/14 11:19:19;;;;;;;;;;;;;;;;;;5121257;27;19916;-85
2022/08/14 11:21:46;;;;;;;;;;;;;;;;;;5138251;27;19916;-86
2022/08/14 11:24:12;;;;;;;;;;;;;;;;;;5125567;27;20535;-86
2022/08/14 11:26:38;;;;;;;;;;;;;;;;;;5120490;27;19922;-86
2022/08/14 11:29:04;;;;;;;;;;;;;;;;;;5120419;27;19911;-86
2022/08/14 11:31:30;;;;;;;;;;;;;;;;;;5121687;27;20066;-86
2022/08/14 11:33:59;;;;;;;;;;;;;;;;;;5123043;27;19919;-87
2022/08/14 11:36:26;;;;;;;;;;;;;;;;;;5125046;27;19915;-86
2022/08/14 11:38:52;;;;;;;;;;;;;;;;;;5130696;27;19916;-85
2022/08/14 11:41:18;;;;;;;;;;;;;;;;;;5128650;27;19922;-86
2022/08/14 11:43:44;;;;;;;;;;;;;;;;;;5111991;27;19915;-86
2022/08/14 11:46:11;;;;;;;;;;;;;;;;;;5124084;27;19911;-87
2022/08/14 11:48:46;;;;;;;;;;;;;;;;;;5105440;27;19915;-89
2022/08/14 11:51:12;;;;;;;;;;;;;;;;;;5120369;27;19923;-88
2022/08/14 11:53:38;;;;;;;;;;;;;;;;;;5120298;27;20007;-87
2022/08/14 11:56:03;;;;;;;;;;;;;;;;;;5120287;27;20369;-86
2022/08/14 11:58:35;;;;;;;;;;;;;;;;;;5102832;27;19915;-86
2022/08/14 12:01:05;;;;;;;;;;;;;;;;;;5141650;27;19983;-86
2022/08/14 12:03:44;;;;;;;;;;;;;;;;;;5113367;27;19919;-86
2022/08/14 12:06:13;;;;;;;;;;;;;;;;;;5138120;27;20367;-87
2022/08/14 12:08:39;;;;;;;;;;;;;;;;;;5120239;27;20286;-86
2022/08/14 12:11:04;;;;;;;;;;;;;;;;;;5138586;27;19922;-88
2022/08/14 12:13:33;;;;;;;;;;;;;;;;;;5119759;27;19972;-87
2022/08/14 12:15:59;;;;;;;;;;;;;;;;;;5138013;27;19922;-86
2022/08/14 12:18:35;;;;;;;;;;;;;;;;;;5120320;27;20293;-85
2022/08/14 12:21:12;;;;;;;;;;;;;;;;;;5139141;27;19912;-86
2022/08/14 12:23:38;;;;;;;;;;;;;;;;;;5156247;27;20277;-85
2022/08/14 12:26:04;;;;;;;;;;;;;;;;;;5105398;27;19979;-85
2022/08/14 12:28:29;;;;;;;;;;;;;;;;;;5137962;27;19919;-88
2022/08/14 12:30:54;;;;;;;;;;;;;;;;;;5138049;27;19972;-86
2022/08/14 12:33:24;;;;;;;;;;;;;;;;;;5138737;27;20059;-86
2022/08/14 12:35:50;;;;;;;;;;;;;;;;;;5137758;27;19923;-87
2022/08/14 12:38:15;;;;;;;;;;;;;;;;;;5137679;27;20325;-87
2022/08/14 12:40:51;;;;;;;;;;;;;;;;;;5137648;27;19919;-87
2022/08/14 12:43:18;;;;;;;;;;;;;;;;;;5134824;27;19971;-87
2022/08/14 12:45:50;;;;;;;;;;;;;;;;;;5131504;27;19923;-86
2022/08/14 12:48:15;;;;;;;;;;;;;;;;;;5119432;27;20033;-87
2022/08/14 12:50:41;;;;;;;;;;;;;;;;;;5119011;27;19974;-86
2022/08/14 12:53:10;;;;;;;;;;;;;;;;;;5119233;27;20013;-87
2022/08/14 12:55:36;;;;;;;;;;;;;;;;;;5118990;27;19920;-87
2022/08/14 12:58:04;;;;;;;;;;;;;;;;;;5119229;27;19954;-88
2022/08/14 13:00:29;;;;;;;;;;;;;;;;;;5137599;27;20348;-87
2022/08/14 13:02:55;;;;;;;;;;;;;;;;;;5142947;27;19942;-88
2022/08/14 13:05:21;;;;;;;;;;;;;;;;;;5132657;27;19915;-86
2022/08/14 13:07:47;;;;;;;;;;;;;;;;;;5129401;27;19923;-89
2022/08/14 13:10:15;;;;;;;;;;;;;;;;;;5123877;27;19915;-87
2022/08/14 13:12:41;;;;;;;;;;;;;;;;;;5123875;27;19915;-89
2022/08/14 13:15:07;;;;;;;;;;;;;;;;;;5119347;27;19958;-89
2022/08/14 13:17:32;;;;;;;;;;;;;;;;;;5117868;27;20325;-89
2022/08/14 13:19:58;;;;;;;;;;;;;;;;;;5118251;27;19998;-89
2022/08/14 13:22:25;;;;;;;;;;;;;;;;;;5119167;27;20329;-87
2022/08/14 13:24:51;;;;;;;;;;;;;;;;;;5155158;27;19910;-88
2022/08/14 13:27:17;;;;;;;;;;;;;;;;;;5124922;27;19920;-88
2022/08/14 13:29:42;;;;;;;;;;;;;;;;;;5118369;27;19971;-88
2022/08/14 13:32:08;;;;;;;;;;;;;;;;;;5118018;27;19915;-87
2022/08/14 13:34:33;;;;;;;;;;;;;;;;;;5136458;27;19915;-89
2022/08/14 13:36:58;;;;;;;;;;;;;;;;;;5136528;27;19923;-89
2022/08/14 13:39:24;;;;;;;;;;;;;;;;;;5117310;27;19923;-89
2022/08/14 13:41:49;;;;;;;;;;;;;;;;;;5136480;27;19915;-89
2022/08/14 13:44:15;;;;;;;;;;;;;;;;;;5150181;27;19919;-88
2022/08/14 13:46:43;;;;;;;;;;;;;;;;;;5151755;27;19924;-89
2022/08/14 13:49:10;;;;;;;;;;;;;;;;;;5117708;27;19915;-88
2022/08/14 13:51:37;;;;;;;;;;;;;;;;;;5118212;27;19972;-88
2022/08/14 13:54:02;;;;;;;;;;;;;;;;;;5135816;27;20295;-87
2022/08/14 13:56:28;;;;;;;;;;;;;;;;;;5135813;27;19919;-89
2022/08/14 13:58:53;;;;;;;;;;;;;;;;;;5135930;27;19919;-87
2022/08/14 14:01:19;;;;;;;;;;;;;;;;;;5100618;27;19916;-90
2022/08/14 14:03:45;;;;;;;;;;;;;;;;;;5124923;27;19904;-86
2022/08/14 14:06:12;;;;;;;;;;;;;;;;;;5155029;27;19918;-88
2022/08/14 14:08:37;;;;;;;;;;;;;;;;;;5127200;28;19915;-87
2022/08/14 14:11:03;;;;;;;;;;;;;;;;;;5117687;28;20018;-88
2022/08/14 14:13:29;;;;;;;;;;;;;;;;;;5135769;28;19915;-88
2022/08/14 14:15:54;;;;;;;;;;;;;;;;;;5117543;28;19935;-88
2022/08/14 14:18:20;;;;;;;;;;;;;;;;;;5117308;28;19916;-89
2022/08/14 14:20:45;;;;;;;;;;;;;;;;;;5117225;28;19968;-89
2022/08/14 14:23:12;;;;;;;;;;;;;;;;;;5117520;28;19998;-88
2022/08/14 14:25:42;;;;;;;;;;;;;;;;;;5150792;27;19920;-86
2022/08/14 14:28:07;;;;;;;;;;;;;;;;;;5150123;27;19954;-88
2022/08/14 14:30:32;;;;;;;;;;;;;;;;;;5121425;27;20004;-87
2022/08/14 14:32:58;;;;;;;;;;;;;;;;;;5121675;27;19915;-88
2022/08/14 14:35:23;;;;;;;;;;;;;;;;;;5140253;27;19915;-87
2022/08/14 14:37:48;;;;;;;;;;;;;;;;;;5139827;27;19926;-89
2022/08/14 14:40:15;;;;;;;;;;;;;;;;;;5121318;27;19922;-90
2022/08/14 14:42:44;;;;;;;;;;;;;;;;;;5121680;27;19915;-88
2022/08/14 14:45:18;;;;;;;;;;;;;;;;;;5151329;27;19931;-86
2022/08/14 14:47:45;;;;;;;;;;;;;;;;;;5156360;27;19920;-88
2022/08/14 14:50:11;;;;;;;;;;;;;;;;;;5130399;27;19926;-89
2022/08/14 14:52:37;;;;;;;;;;;;;;;;;;5156226;27;19915;-87
2022/08/14 14:55:02;;;;;;;;;;;;;;;;;;5155309;27;19930;-87
2022/08/14 14:57:29;;;;;;;;;;;;;;;;;;5133282;27;19938;-87
2022/08/14 14:59:55;;;;;;;;;;;;;;;;;;5150315;27;19923;-87
2022/08/14 15:02:40;;;;;;;;;;;;;;;;;;5104877;27;19911;-89
2022/08/14 15:05:06;;;;;;;;;;;;;;;;;;5126744;27;19965;-89
2022/08/14 15:07:32;;;;;;;;;;;;;;;;;;5155168;27;20237;-88
2022/08/14 15:09:58;;;;;;;;;;;;;;;;;;5122193;27;19915;-88
2022/08/14 15:12:23;;;;;;;;;;;;;;;;;;5120745;27;19918;-89
2022/08/14 15:14:48;;;;;;;;;;;;;;;;;;5139421;27;20305;-88
2022/08/14 15:17:14;;;;;;;;;;;;;;;;;;5121453;27;19915;-89
2022/08/14 15:19:40;;;;;;;;;;;;;;;;;;5139233;27;20325;-87
2022/08/14 15:22:07;;;;;;;;;;;;;;;;;;5104016;27;19915;-89
2022/08/14 15:24:32;;;;;;;;;;;;;;;;;;5138997;27;20329;-88
2022/08/14 15:26:59;;;;;;;;;;;;;;;;;;5148642;27;19943;-87
2022/08/14 15:29:24;;;;;;;;;;;;;;;;;;5147670;27;19915;-88
2022/08/14 15:31:49;;;;;;;;;;;;;;;;;;5138772;27;20344;-87
2022/08/14 15:34:17;;;;;;;;;;;;;;;;;;5138614;27;19915;-88
2022/08/14 15:36:44;;;;;;;;;;;;;;;;;;5120313;27;19916;-87
2022/08/14 15:39:09;;;;;;;;;;;;;;;;;;5138433;27;20009;-89
2022/08/14 15:41:35;;;;;;;;;;;;;;;;;;5137485;27;19951;-89
2022/08/14 15:44:00;;;;;;;;;;;;;;;;;;5120158;27;19991;-88
2022/08/14 15:46:25;;;;;;;;;;;;;;;;;;5132076;27;19919;-89
2022/08/14 15:48:51;;;;;;;;;;;;;;;;;;5146221;27;20016;-88
2022/08/14 15:51:16;;;;;;;;;;;;;;;;;;5139155;27;19916;-89
2022/08/14 15:53:42;;;;;;;;;;;;;;;;;;5137922;27;19969;-89
2022/08/14 15:56:07;;;;;;;;;;;;;;;;;;5137968;27;19969;-87
2022/08/14 15:58:32;;;;;;;;;;;;;;;;;;5138662;27;19915;-88
2022/08/14 16:03:42;;;;;;;;;;;;;;;;;;5137944;27;19970;-88
2022/08/14 16:06:08;;;;;;;;;;;;;;;;;;5141471;27;19903;-88
2022/08/14 16:08:33;;;;;;;;;;;;;;;;;;5150004;27;19915;-88
2022/08/14 16:10:59;;;;;;;;;;;;;;;;;;5141041;27;20260;-87
2022/08/14 16:13:24;;;;;;;;;;;;;;;;;;5141736;27;19921;-87
2022/08/14 16:15:52;;;;;;;;;;;;;;;;;;5140384;27;19923;-87
2022/08/14 16:18:18;;;;;;;;;;;;;;;;;;5121055;27;19916;-88
2022/08/14 16:20:46;;;;;;;;;;;;;;;;;;5122022;27;19916;-88
2022/08/14 16:23:16;;;;;;;;;;;;;;;;;;5119807;27;19915;-88
2022/08/14 16:25:42;;;;;;;;;;;;;;;;;;5119817;27;19950;-87
2022/08/14 16:28:08;;;;;;;;;;;;;;;;;;5135697;27;19937;-87
2022/08/14 16:30:33;;;;;;;;;;;;;;;;;;5139427;27;19915;-87
2022/08/14 16:32:59;;;;;;;;;;;;;;;;;;5119656;27;19998;-89
2022/08/14 16:35:25;;;;;;;;;;;;;;;;;;5139233;27;20370;-88
2022/08/14 16:37:50;;;;;;;;;;;;;;;;;;5120919;27;20348;-89
2022/08/14 16:40:15;;;;;;;;;;;;;;;;;;5120176;27;19988;-88
2022/08/14 16:42:41;;;;;;;;;;;;;;;;;;5137494;27;19972;-88
2022/08/14 16:45:09;;;;;;;;;;;;;;;;;;5138774;27;19937;-88
2022/08/14 16:47:36;;;;;;;;;;;;;;;;;;5149369;27;19904;-88
2022/08/14 16:50:02;;;;;;;;;;;;;;;;;;5127922;27;19923;-88
2022/08/14 16:52:27;;;;;;;;;;;;;;;;;;5102794;27;20010;-87
2022/08/14 16:54:53;;;;;;;;;;;;;;;;;;5138857;27;19920;-88
2022/08/14 16:57:22;;;;;;;;;;;;;;;;;;5102157;27;19915;-89
2022/08/14 16:59:48;;;;;;;;;;;;;;;;;;5120930;27;19915;-87
2022/08/14 17:02:13;;;;;;;;;;;;;;;;;;5138605;27;19923;-88